Al Rawdah — V7VM8 — position and weather

sailwx.info

Track history (hours):
 
Tides and Currents Weather Stations Pressure Air Temp Water Temp Dewpoint Dewpoint Depression Visibility Wind Speed Wind Dir Waves Ship Positions

Al Rawdah

Last reported at 2016-Aug-26 02:07 UTC. Time now 2016-Aug-26 04:54 UTC.
Position N 35°31' E 014°40'.

Length 307 m; draft 11 m.

Type: Ship (hazmat cat A). MMSI: 538004160.

Date/timePositionNaut miles runAvg speedWind from/ knotsBaromVisibWave heightAir tempDewpointWater temp
2016-Aug-26 02:07N 35°31' E 014°40'1 1.3
2016-Aug-26 01:33N 35°32' E 014°40'1 1.1
2016-Aug-26 00:24N 35°33' E 014°41'1 1.0
2016-Aug-25 23:26N 35°34' E 014°41'2 0.8
2016-Aug-25 21:15N 35°36' E 014°42'1 0.5
2016-Aug-25 20:13N 35°36' E 014°42'0 0.4
2016-Aug-25 19:27N 35°36' E 014°41'0 0.4
2016-Aug-25 18:33N 35°37' E 014°41'2 2.0
2016-Aug-25 17:17N 35°38' E 014°38'8 9.0
2016-Aug-25 16:21N 35°41' E 014°29'1012.0
2016-Aug-25 15:33N 35°44' E 014°18'1212.1
2016-Aug-25 14:33N 35°52' E 014°07'9 9.1
2016-Aug-25 13:33N 35°58' E 013°58'9 9.1
2016-Aug-25 12:33N 36°04' E 013°50'9 9.3
2016-Aug-25 11:33N 36°11' E 013°42'12 9.5
2016-Aug-25 10:21N 36°20' E 013°32'8 9.6
2016-Aug-25 09:33N 36°25' E 013°26'10 9.6
2016-Aug-25 08:33N 36°32' E 013°17'9813.8
2016-Aug-25 01:28N 37°45' E 011°55'30312.1
2016-Aug-24 00:32N 42°32' E 009°50'1312.9
2016-Aug-23 23:33N 42°44' E 009°44'1312.6
2016-Aug-23 22:33N 42°55' E 009°38'1312.7
2016-Aug-23 21:33N 43°08' E 009°33'1312.9
2016-Aug-23 20:33N 43°20' E 009°28'1312.9
2016-Aug-23 19:33N 43°32' E 009°22'1312.9
2016-Aug-23 18:33N 43°44' E 009°16'1313.0
2016-Aug-23 17:33N 43°56' E 009°10'1313.0
2016-Aug-23 16:33N 44°09' E 009°04'1312.9
2016-Aug-23 15:33N 44°21' E 008°58'4 3.9
2016-Aug-23 14:31N 44°24' E 008°55'0 0.0
2016-Aug-23 13:31N 44°24' E 008°55'0 0.0
2016-Aug-23 12:31N 44°24' E 008°55'0 0.0
2016-Aug-23 11:31N 44°24' E 008°55'0 0.0
2016-Aug-23 10:31N 44°24' E 008°55'0 0.0
2016-Aug-23 09:31N 44°24' E 008°55'0 0.0
2016-Aug-23 08:28N 44°24' E 008°55'0 0.0
2016-Aug-23 07:28N 44°24' E 008°55'0 0.0
2016-Aug-23 06:31N 44°24' E 008°55'0 0.0
2016-Aug-23 05:31N 44°24' E 008°55'0 0.0
2016-Aug-23 04:31N 44°24' E 008°55'1 0.5
2016-Aug-23 03:34N 44°24' E 008°55'6 6.2
2016-Aug-23 02:33N 44°19' E 008°60'1110.6
2016-Aug-23 01:33N 44°08' E 009°02'1110.9
2016-Aug-23 00:33N 43°57' E 009°04'1010.4
2016-Aug-22 23:33N 43°50' E 008°54'1010.5
2016-Aug-22 22:33N 43°44' E 008°43'1010.5
2016-Aug-22 21:33N 43°37' E 008°31'1010.2
2016-Aug-22 20:33N 43°31' E 008°20'10 9.9
2016-Aug-22 19:33N 43°25' E 008°09'1010.2
2016-Aug-22 18:33N 43°19' E 007°58'1010.5
2016-Aug-22 17:33N 43°12' E 007°47'1110.9
2016-Aug-22 16:33N 43°06' E 007°35'1110.7
2016-Aug-22 15:33N 42°59' E 007°24'1111.0
2016-Aug-22 14:33N 42°52' E 007°12'1111.4
2016-Aug-22 13:33N 42°45' E 006°60'1510.9
2016-Aug-22 12:11N 42°36' E 006°43'17811.3
2016-Aug-21 20:28N 40°46' E 003°36'1213.0
2016-Aug-21 19:33N 40°38' E 003°24'1313.1
2016-Aug-21 18:33N 40°31' E 003°10'1313.1
2016-Aug-21 17:33N 40°22' E 002°57'1313.2
2016-Aug-21 16:34N 40°14' E 002°43'1413.6
2016-Aug-21 15:33N 40°06' E 002°29'1313.5
2016-Aug-21 14:33N 39°58' E 002°15'1313.4
2016-Aug-21 13:33N 39°50' E 002°01'1313.3
2016-Aug-21 12:33N 39°41' E 001°48'1313.1
2016-Aug-21 11:33N 39°33' E 001°34'1313.1
2016-Aug-21 10:33N 39°24' E 001°22'10012.5
2016-Aug-21 02:32N 38°07' W 000°01'1512.2
2016-Aug-21 01:18N 37°55' W 000°12'1012.5
2016-Aug-21 00:30N 37°47' W 000°19'1212.6
2016-Aug-20 23:33N 37°37' W 000°27'1312.9
2016-Aug-20 22:33N 37°27' W 000°38'1313.2
2016-Aug-20 21:32N 37°18' W 000°50'1413.4
2016-Aug-20 20:32N 37°09' W 001°03'1313.0
2016-Aug-20 19:34N 37°01' W 001°16'1110.8
2016-Aug-20 18:33N 36°54' W 001°26'10 9.7
2016-Aug-20 17:33N 36°47' W 001°35'10 9.6
2016-Aug-20 16:34N 36°40' W 001°43'10 9.7
2016-Aug-20 15:33N 36°33' W 001°51'10 9.5
2016-Aug-20 14:33N 36°27' W 002°00'9 9.1
2016-Aug-20 13:33N 36°23' W 002°10'9 8.7
2016-Aug-20 12:33N 36°21' W 002°21'1312.8
2016-Aug-20 11:34N 36°19' W 002°36'11814.4
2016-Aug-20 03:21N 36°01' W 005°01'1316.1
2016-Aug-20 02:33N 35°60' W 005°17'12 0.8
2016-Aug-19 12:07N 35°54' W 005°30'2 4.0
2016-Aug-19 11:33N 35°54' W 005°32'4 3.6
2016-Aug-19 10:25N 35°58' W 005°31'8 8.8
2016-Aug-19 09:34N 36°00' W 005°22'1010.5
2016-Aug-19 08:33N 36°03' W 005°10'22 9.9
2016-Aug-19 06:18N 36°08' W 004°43'5 7.1
2016-Aug-19 05:31N 36°09' W 004°36'7 6.8
2016-Aug-19 04:33N 36°10' W 004°28'21 7.2
2016-Aug-19 01:33N 36°13' W 004°02'48 7.8
2016-Aug-18 19:24N 36°21' W 003°03'7 8.2
2016-Aug-18 18:33N 36°21' W 002°55'9 9.0
2016-Aug-18 17:33N 36°22' W 002°43'9 9.0
2016-Aug-18 16:33N 36°24' W 002°32'9 8.8
2016-Aug-18 15:33N 36°25' W 002°22'9 9.2
2016-Aug-18 14:33N 36°27' W 002°10'9 9.1
2016-Aug-18 13:33N 36°32' W 002°01'9 8.8
2016-Aug-18 12:33N 36°38' W 001°53'9 9.0
2016-Aug-18 11:33N 36°44' W 001°45'9 8.7
2016-Aug-18 10:33N 36°50' W 001°37'1212.0
2016-Aug-18 09:33N 36°58' W 001°26'2913.0
2016-Aug-18 07:21N 37°17' W 000°58'7 8.8
2016-Aug-18 06:33N 37°21' W 000°52'1211.8
2016-Aug-18 05:34N 37°29' W 000°41'1212.3
2016-Aug-18 04:33N 37°38' W 000°29'1212.1
2016-Aug-18 03:33N 37°48' W 000°22'1212.2
2016-Aug-18 02:33N 37°59' W 000°14'1212.0
2016-Aug-18 01:33N 38°08' W 000°05'1312.1
2016-Aug-18 00:28N 38°19' E 000°05'1212.3
2016-Aug-17 23:31N 38°29' E 000°13'1212.4
2016-Aug-17 22:33N 38°39' E 000°20'10 9.8
2016-Aug-17 21:32N 38°49' E 000°21'1211.9
2016-Aug-17 20:33N 38°58' E 000°11'1212.2
2016-Aug-17 19:33N 39°08' E 000°02'1312.7
2016-Aug-17 18:33N 39°18' W 000°09'1211.6
2016-Aug-17 17:33N 39°27' W 000°19'0 0.3
2016-Aug-17 16:31N 39°27' W 000°19'0 0.0
2016-Aug-17 15:31N 39°27' W 000°19'0 0.0
2016-Aug-17 14:31N 39°27' W 000°19'0 0.0
2016-Aug-17 13:31N 39°27' W 000°19'0 0.0
2016-Aug-17 12:31N 39°27' W 000°19'0 0.0
2016-Aug-17 11:31N 39°27' W 000°19'0 0.0
2016-Aug-17 10:31N 39°27' W 000°19'0 0.0
2016-Aug-17 09:31N 39°27' W 000°19'0 0.0
2016-Aug-17 08:31N 39°27' W 000°19'0 0.0
2016-Aug-17 07:31N 39°27' W 000°19'0 0.0
2016-Aug-17 06:31N 39°27' W 000°19'0 0.0
2016-Aug-17 05:31N 39°27' W 000°19'0 0.0
2016-Aug-17 04:28N 39°27' W 000°19'0 0.0
2016-Aug-17 03:31N 39°27' W 000°19'0 0.0
2016-Aug-17 02:31N 39°27' W 000°19'0 0.0
2016-Aug-17 01:31N 39°27' W 000°19'0 0.0
2016-Aug-17 00:31N 39°27' W 000°19'0 0.0
2016-Aug-16 23:31N 39°27' W 000°19'4 3.8
2016-Aug-16 22:33N 39°25' W 000°15'6 6.1
2016-Aug-16 21:34N 39°29' W 000°09'1717.2
2016-Aug-16 20:33N 39°42' E 000°06'1918.4
2016-Aug-16 19:33N 39°55' E 000°23'1818.0
2016-Aug-16 18:33N 40°06' E 000°42'1817.9
2016-Aug-16 17:33N 40°15' E 001°02'1818.3
2016-Aug-16 16:33N 40°24' E 001°23'1818.1
2016-Aug-16 15:33N 40°36' E 001°41'1918.8
2016-Aug-16 14:33N 40°52' E 001°53'1918.5
2016-Aug-16 13:33N 41°08' E 002°05'1312.9
2016-Aug-16 12:33N 41°20' E 002°10'0 0.4
2016-Aug-16 11:31N 41°21' E 002°10'0 0.0
2016-Aug-16 10:31N 41°21' E 002°10'0 0.0
2016-Aug-16 04:25N 41°21' E 002°10'0 0.0
2016-Aug-16 02:28N 41°21' E 002°10'  
Track history (hours):
 
Tides and Currents Weather Stations Pressure Air Temp Water Temp Dewpoint Dewpoint Depression Visibility Wind Speed Wind Dir Waves Ship Positions

Al Rawdah

Last reported at 2016-Aug-26 02:07 UTC. Time now 2016-Aug-26 04:54 UTC.
Position N 35°31' E 014°40'.

Length 307 m; draft 11 m.

Type: Ship (hazmat cat A). MMSI: 538004160.

Date/timePositionNaut miles runAvg speedWind from/ knotsBaromVisibWave heightAir tempDewpointWater temp
2016-Aug-26 02:07N 35°31' E 014°40'1 1.3
2016-Aug-26 01:33N 35°32' E 014°40'1 1.1
2016-Aug-26 00:24N 35°33' E 014°41'1 1.0
2016-Aug-25 23:26N 35°34' E 014°41'2 0.8
2016-Aug-25 21:15N 35°36' E 014°42'1 0.5
2016-Aug-25 20:13N 35°36' E 014°42'0 0.4
2016-Aug-25 19:27N 35°36' E 014°41'0 0.4
2016-Aug-25 18:33N 35°37' E 014°41'2 2.0
2016-Aug-25 17:17N 35°38' E 014°38'8 9.0
2016-Aug-25 16:21N 35°41' E 014°29'1012.0
2016-Aug-25 15:33N 35°44' E 014°18'1212.1
2016-Aug-25 14:33N 35°52' E 014°07'9 9.1
2016-Aug-25 13:33N 35°58' E 013°58'9 9.1
2016-Aug-25 12:33N 36°04' E 013°50'9 9.3
2016-Aug-25 11:33N 36°11' E 013°42'12 9.5
2016-Aug-25 10:21N 36°20' E 013°32'8 9.6
2016-Aug-25 09:33N 36°25' E 013°26'10 9.6
2016-Aug-25 08:33N 36°32' E 013°17'9813.8
2016-Aug-25 01:28N 37°45' E 011°55'30312.1
2016-Aug-24 00:32N 42°32' E 009°50'1312.9
2016-Aug-23 23:33N 42°44' E 009°44'1312.6
2016-Aug-23 22:33N 42°55' E 009°38'1312.7
2016-Aug-23 21:33N 43°08' E 009°33'1312.9
2016-Aug-23 20:33N 43°20' E 009°28'1312.9
2016-Aug-23 19:33N 43°32' E 009°22'1312.9
2016-Aug-23 18:33N 43°44' E 009°16'1313.0
2016-Aug-23 17:33N 43°56' E 009°10'1313.0
2016-Aug-23 16:33N 44°09' E 009°04'1312.9
2016-Aug-23 15:33N 44°21' E 008°58'4 3.9
2016-Aug-23 14:31N 44°24' E 008°55'0 0.0
2016-Aug-23 13:31N 44°24' E 008°55'0 0.0
2016-Aug-23 12:31N 44°24' E 008°55'0 0.0
2016-Aug-23 11:31N 44°24' E 008°55'0 0.0
2016-Aug-23 10:31N 44°24' E 008°55'0 0.0
2016-Aug-23 09:31N 44°24' E 008°55'0 0.0
2016-Aug-23 08:28N 44°24' E 008°55'0 0.0
2016-Aug-23 07:28N 44°24' E 008°55'0 0.0
2016-Aug-23 06:31N 44°24' E 008°55'0 0.0
2016-Aug-23 05:31N 44°24' E 008°55'0 0.0
2016-Aug-23 04:31N 44°24' E 008°55'1 0.5
2016-Aug-23 03:34N 44°24' E 008°55'6 6.2
2016-Aug-23 02:33N 44°19' E 008°60'1110.6
2016-Aug-23 01:33N 44°08' E 009°02'1110.9
2016-Aug-23 00:33N 43°57' E 009°04'1010.4
2016-Aug-22 23:33N 43°50' E 008°54'1010.5
2016-Aug-22 22:33N 43°44' E 008°43'1010.5
2016-Aug-22 21:33N 43°37' E 008°31'1010.2
2016-Aug-22 20:33N 43°31' E 008°20'10 9.9
2016-Aug-22 19:33N 43°25' E 008°09'1010.2
2016-Aug-22 18:33N 43°19' E 007°58'1010.5
2016-Aug-22 17:33N 43°12' E 007°47'1110.9
2016-Aug-22 16:33N 43°06' E 007°35'1110.7
2016-Aug-22 15:33N 42°59' E 007°24'1111.0
2016-Aug-22 14:33N 42°52' E 007°12'1111.4
2016-Aug-22 13:33N 42°45' E 006°60'1510.9
2016-Aug-22 12:11N 42°36' E 006°43'17811.3
2016-Aug-21 20:28N 40°46' E 003°36'1213.0
2016-Aug-21 19:33N 40°38' E 003°24'1313.1
2016-Aug-21 18:33N 40°31' E 003°10'1313.1
2016-Aug-21 17:33N 40°22' E 002°57'1313.2
2016-Aug-21 16:34N 40°14' E 002°43'1413.6
2016-Aug-21 15:33N 40°06' E 002°29'1313.5
2016-Aug-21 14:33N 39°58' E 002°15'1313.4
2016-Aug-21 13:33N 39°50' E 002°01'1313.3
2016-Aug-21 12:33N 39°41' E 001°48'1313.1
2016-Aug-21 11:33N 39°33' E 001°34'1313.1
2016-Aug-21 10:33N 39°24' E 001°22'10012.5
2016-Aug-21 02:32N 38°07' W 000°01'1512.2
2016-Aug-21 01:18N 37°55' W 000°12'1012.5
2016-Aug-21 00:30N 37°47' W 000°19'1212.6
2016-Aug-20 23:33N 37°37' W 000°27'1312.9
2016-Aug-20 22:33N 37°27' W 000°38'1313.2
2016-Aug-20 21:32N 37°18' W 000°50'1413.4
2016-Aug-20 20:32N 37°09' W 001°03'1313.0
2016-Aug-20 19:34N 37°01' W 001°16'1110.8
2016-Aug-20 18:33N 36°54' W 001°26'10 9.7
2016-Aug-20 17:33N 36°47' W 001°35'10 9.6
2016-Aug-20 16:34N 36°40' W 001°43'10 9.7
2016-Aug-20 15:33N 36°33' W 001°51'10 9.5
2016-Aug-20 14:33N 36°27' W 002°00'9 9.1
2016-Aug-20 13:33N 36°23' W 002°10'9 8.7
2016-Aug-20 12:33N 36°21' W 002°21'1312.8
2016-Aug-20 11:34N 36°19' W 002°36'11814.4
2016-Aug-20 03:21N 36°01' W 005°01'1316.1
2016-Aug-20 02:33N 35°60' W 005°17'12 0.8
2016-Aug-19 12:07N 35°54' W 005°30'2 4.0
2016-Aug-19 11:33N 35°54' W 005°32'4 3.6
2016-Aug-19 10:25N 35°58' W 005°31'8 8.8
2016-Aug-19 09:34N 36°00' W 005°22'1010.5
2016-Aug-19 08:33N 36°03' W 005°10'22 9.9
2016-Aug-19 06:18N 36°08' W 004°43'5 7.1
2016-Aug-19 05:31N 36°09' W 004°36'7 6.8
2016-Aug-19 04:33N 36°10' W 004°28'21 7.2
2016-Aug-19 01:33N 36°13' W 004°02'48 7.8
2016-Aug-18 19:24N 36°21' W 003°03'7 8.2
2016-Aug-18 18:33N 36°21' W 002°55'9 9.0
2016-Aug-18 17:33N 36°22' W 002°43'9 9.0
2016-Aug-18 16:33N 36°24' W 002°32'9 8.8
2016-Aug-18 15:33N 36°25' W 002°22'9 9.2
2016-Aug-18 14:33N 36°27' W 002°10'9 9.1
2016-Aug-18 13:33N 36°32' W 002°01'9 8.8
2016-Aug-18 12:33N 36°38' W 001°53'9 9.0
2016-Aug-18 11:33N 36°44' W 001°45'9 8.7
2016-Aug-18 10:33N 36°50' W 001°37'1212.0
2016-Aug-18 09:33N 36°58' W 001°26'2913.0
2016-Aug-18 07:21N 37°17' W 000°58'7 8.8
2016-Aug-18 06:33N 37°21' W 000°52'1211.8
2016-Aug-18 05:34N 37°29' W 000°41'1212.3
2016-Aug-18 04:33N 37°38' W 000°29'1212.1
2016-Aug-18 03:33N 37°48' W 000°22'1212.2
2016-Aug-18 02:33N 37°59' W 000°14'1212.0
2016-Aug-18 01:33N 38°08' W 000°05'1312.1
2016-Aug-18 00:28N 38°19' E 000°05'1212.3
2016-Aug-17 23:31N 38°29' E 000°13'1212.4
2016-Aug-17 22:33N 38°39' E 000°20'10 9.8
2016-Aug-17 21:32N 38°49' E 000°21'1211.9
2016-Aug-17 20:33N 38°58' E 000°11'1212.2
2016-Aug-17 19:33N 39°08' E 000°02'1312.7
2016-Aug-17 18:33N 39°18' W 000°09'1211.6
2016-Aug-17 17:33N 39°27' W 000°19'0 0.3
2016-Aug-17 16:31N 39°27' W 000°19'0 0.0
2016-Aug-17 15:31N 39°27' W 000°19'0 0.0
2016-Aug-17 14:31N 39°27' W 000°19'0 0.0
2016-Aug-17 13:31N 39°27' W 000°19'0 0.0
2016-Aug-17 12:31N 39°27' W 000°19'0 0.0
2016-Aug-17 11:31N 39°27' W 000°19'0 0.0
2016-Aug-17 10:31N 39°27' W 000°19'0 0.0
2016-Aug-17 09:31N 39°27' W 000°19'0 0.0
2016-Aug-17 08:31N 39°27' W 000°19'0 0.0
2016-Aug-17 07:31N 39°27' W 000°19'0 0.0
2016-Aug-17 06:31N 39°27' W 000°19'0 0.0
2016-Aug-17 05:31N 39°27' W 000°19'0 0.0
2016-Aug-17 04:28N 39°27' W 000°19'0 0.0
2016-Aug-17 03:31N 39°27' W 000°19'0 0.0
2016-Aug-17 02:31N 39°27' W 000°19'0 0.0
2016-Aug-17 01:31N 39°27' W 000°19'0 0.0
2016-Aug-17 00:31N 39°27' W 000°19'0 0.0
2016-Aug-16 23:31N 39°27' W 000°19'4 3.8
2016-Aug-16 22:33N 39°25' W 000°15'6 6.1
2016-Aug-16 21:34N 39°29' W 000°09'1717.2
2016-Aug-16 20:33N 39°42' E 000°06'1918.4
2016-Aug-16 19:33N 39°55' E 000°23'1818.0
2016-Aug-16 18:33N 40°06' E 000°42'1817.9
2016-Aug-16 17:33N 40°15' E 001°02'1818.3
2016-Aug-16 16:33N 40°24' E 001°23'1818.1
2016-Aug-16 15:33N 40°36' E 001°41'1918.8
2016-Aug-16 14:33N 40°52' E 001°53'1918.5
2016-Aug-16 13:33N 41°08' E 002°05'1312.9
2016-Aug-16 12:33N 41°20' E 002°10'0 0.4
2016-Aug-16 11:31N 41°21' E 002°10'0 0.0
2016-Aug-16 10:31N 41°21' E 002°10'0 0.0
2016-Aug-16 04:25N 41°21' E 002°10'0 0.0
2016-Aug-16 02:28N 41°21' E 002°10'  

Dump ship's entire track history